AAL72 KATL-KMIA
Flight info
| Callsign | AAL72 |
|---|---|
| Flight time | N/A |
| Altitude | 37000 |
| Route | BANNG3 LUCKK HONID FROGZ5 |
| Aircraft | B738/M-SDE2E3FGHIRWXY/LB1 |
Departure
| Time | 2026-04-30 21:44 |
|---|---|
| Airport | Hartsfield Jackson Atlanta International Airport (KATL) |
Arrival
| Time | N/A |
|---|---|
| Airport | Miami International Airport (KMIA) |
| Time | Latitude | Longitude | Altitude | Speed | Heading |
|---|---|---|---|---|---|
| 2026-04-30 21:14 | 33.64345 | -84.44192 | 1034 ft | 0 kts | 289° |
| 2026-04-30 21:32 | 33.64336 | -84.44152 | 1035 ft | 4 kts | 268° |
| 2026-04-30 21:32 | 33.64343 | -84.44125 | 1034 ft | 4 kts | 217° |
| 2026-04-30 21:32 | 33.64357 | -84.44118 | 1034 ft | 1 kts | 178° |
| 2026-04-30 21:32 | 33.64361 | -84.44119 | 1034 ft | 0 kts | 178° |
| 2026-04-30 21:35 | 33.64359 | -84.44119 | 1034 ft | 1 kts | 178° |
| 2026-04-30 21:35 | 33.64321 | -84.44117 | 1034 ft | 10 kts | 179° |
| 2026-04-30 21:35 | 33.64230 | -84.44119 | 1035 ft | 16 kts | 181° |
| 2026-04-30 21:36 | 33.64098 | -84.44118 | 1035 ft | 20 kts | 180° |
| 2026-04-30 21:36 | 33.63947 | -84.44118 | 1035 ft | 19 kts | 180° |
| 2026-04-30 21:37 | 33.63674 | -84.44086 | 1035 ft | 8 kts | 113° |
| 2026-04-30 21:37 | 33.63667 | -84.43990 | 1035 ft | 15 kts | 86° |
| 2026-04-30 21:37 | 33.63665 | -84.43840 | 1035 ft | 21 kts | 90° |
| 2026-04-30 21:37 | 33.63665 | -84.43673 | 1035 ft | 18 kts | 90° |
| 2026-04-30 21:38 | 33.63665 | -84.43499 | 1034 ft | 24 kts | 90° |
| 2026-04-30 21:38 | 33.63665 | -84.43311 | 1034 ft | 20 kts | 90° |
| 2026-04-30 21:38 | 33.63665 | -84.43142 | 1034 ft | 21 kts | 90° |
| 2026-04-30 21:38 | 33.63665 | -84.42966 | 1034 ft | 19 kts | 90° |
| 2026-04-30 21:39 | 33.63665 | -84.42800 | 1034 ft | 20 kts | 92° |
| 2026-04-30 21:39 | 33.63656 | -84.42627 | 1035 ft | 22 kts | 89° |
| 2026-04-30 21:39 | 33.63656 | -84.42447 | 1035 ft | 19 kts | 90° |
| 2026-04-30 21:39 | 33.63655 | -84.42280 | 1035 ft | 21 kts | 90° |
| 2026-04-30 21:40 | 33.63657 | -84.42100 | 1035 ft | 22 kts | 88° |
| 2026-04-30 21:40 | 33.63657 | -84.41912 | 1034 ft | 22 kts | 89° |
| 2026-04-30 21:40 | 33.63656 | -84.41728 | 1034 ft | 22 kts | 90° |
| 2026-04-30 21:40 | 33.63656 | -84.41546 | 1034 ft | 23 kts | 90° |
| 2026-04-30 21:41 | 33.63656 | -84.41351 | 1034 ft | 24 kts | 91° |
| 2026-04-30 21:41 | 33.63656 | -84.41145 | 1034 ft | 25 kts | 89° |
| 2026-04-30 21:41 | 33.63656 | -84.40932 | 1034 ft | 27 kts | 90° |
| 2026-04-30 21:41 | 33.63648 | -84.40771 | 1035 ft | 10 kts | 118° |
| 2026-04-30 21:42 | 33.63587 | -84.40746 | 1035 ft | 6 kts | 181° |
| 2026-04-30 21:42 | 33.63578 | -84.40746 | 1035 ft | 2 kts | 181° |
| 2026-04-30 21:42 | 33.63562 | -84.40746 | 1035 ft | 5 kts | 181° |
| 2026-04-30 21:42 | 33.63494 | -84.40757 | 1035 ft | 14 kts | 207° |
| 2026-04-30 21:43 | 33.63472 | -84.40899 | 1035 ft | 29 kts | 270° |
| 2026-04-30 21:43 | 33.63473 | -84.41398 | 1034 ft | 94 kts | 270° |
| 2026-04-30 21:43 | 33.63474 | -84.42426 | 1036 ft | 150 kts | 271° |
| 2026-04-30 21:43 | 33.63488 | -84.43794 | 1407 ft | 173 kts | 275° |
| 2026-04-30 21:44 | 33.63485 | -84.45263 | 2064 ft | 181 kts | 276° |
| 2026-04-30 21:44 | 33.63478 | -84.46791 | 2792 ft | 186 kts | 275° |
| 2026-04-30 21:44 | 33.63470 | -84.48370 | 3480 ft | 192 kts | 274° |
| 2026-04-30 21:44 | 33.63475 | -84.49999 | 4165 ft | 197 kts | 274° |
| 2026-04-30 21:45 | 33.63477 | -84.51684 | 4669 ft | 212 kts | 274° |
| 2026-04-30 21:45 | 33.63474 | -84.53553 | 4852 ft | 234 kts | 272° |
| 2026-04-30 21:45 | 33.63465 | -84.55577 | 5165 ft | 252 kts | 272° |
| 2026-04-30 21:45 | 33.63469 | -84.57764 | 5589 ft | 269 kts | 272° |
| 2026-04-30 21:46 | 33.63469 | -84.60017 | 6390 ft | 269 kts | 272° |
| 2026-04-30 21:46 | 33.63461 | -84.62205 | 7317 ft | 265 kts | 271° |
| 2026-04-30 21:46 | 33.63290 | -84.64414 | 8119 ft | 269 kts | 255° |
| 2026-04-30 21:46 | 33.62322 | -84.66358 | 8819 ft | 280 kts | 228° |
| 2026-04-30 21:47 | 33.60747 | -84.67740 | 9697 ft | 283 kts | 213° |
| 2026-04-30 21:47 | 33.59021 | -84.68877 | 10572 ft | 282 kts | 211° |
| 2026-04-30 21:47 | 33.57108 | -84.69538 | 11314 ft | 296 kts | 188° |
| 2026-04-30 21:47 | 33.55013 | -84.69346 | 12073 ft | 306 kts | 176° |
| 2026-04-30 21:48 | 33.52902 | -84.68923 | 12884 ft | 310 kts | 175° |
| 2026-04-30 21:48 | 33.50792 | -84.68487 | 13682 ft | 314 kts | 176° |
| 2026-04-30 21:48 | 33.48623 | -84.68054 | 14436 ft | 317 kts | 177° |
| 2026-04-30 21:48 | 33.46428 | -84.67631 | 15182 ft | 322 kts | 178° |
| 2026-04-30 21:49 | 33.44200 | -84.67211 | 15887 ft | 327 kts | 178° |
| 2026-04-30 21:49 | 33.41938 | -84.66745 | 16593 ft | 336 kts | 172° |
| 2026-04-30 21:49 | 33.39661 | -84.65757 | 16911 ft | 362 kts | 163° |
| 2026-04-30 21:49 | 33.37286 | -84.64485 | 17064 ft | 386 kts | 161° |
| 2026-04-30 21:50 | 33.34838 | -84.63110 | 17364 ft | 402 kts | 161° |
| 2026-04-30 21:50 | 33.32273 | -84.61659 | 17937 ft | 409 kts | 161° |
| 2026-04-30 21:50 | 33.29684 | -84.60211 | 18580 ft | 413 kts | 162° |
| 2026-04-30 21:50 | 33.27067 | -84.58767 | 19191 ft | 416 kts | 162° |
| 2026-04-30 21:51 | 33.24427 | -84.57328 | 19816 ft | 418 kts | 163° |
| 2026-04-30 21:51 | 33.21765 | -84.55889 | 20443 ft | 421 kts | 164° |
| 2026-04-30 21:51 | 33.19089 | -84.54450 | 21050 ft | 424 kts | 164° |
| 2026-04-30 21:51 | 33.16382 | -84.52997 | 21612 ft | 428 kts | 165° |
| 2026-04-30 21:52 | 33.13660 | -84.51538 | 22167 ft | 431 kts | 165° |
| 2026-04-30 21:52 | 33.10955 | -84.50087 | 22722 ft | 434 kts | 165° |
| 2026-04-30 21:52 | 33.08195 | -84.48607 | 23254 ft | 437 kts | 166° |
| 2026-04-30 21:52 | 33.05411 | -84.47114 | 23737 ft | 440 kts | 166° |
| 2026-04-30 21:53 | 33.02603 | -84.45609 | 24110 ft | 445 kts | 166° |
| 2026-04-30 21:53 | 32.99760 | -84.44089 | 24465 ft | 450 kts | 166° |
| 2026-04-30 21:53 | 32.96882 | -84.42615 | 24837 ft | 448 kts | 171° |
| 2026-04-30 21:53 | 32.93900 | -84.41941 | 25184 ft | 427 kts | 189° |
| 2026-04-30 21:54 | 32.90979 | -84.41879 | 25614 ft | 426 kts | 191° |
| 2026-04-30 21:54 | 32.87964 | -84.41865 | 25956 ft | 430 kts | 191° |
| 2026-04-30 21:54 | 32.84995 | -84.41855 | 26286 ft | 435 kts | 191° |
| 2026-04-30 21:54 | 32.81955 | -84.41832 | 26643 ft | 439 kts | 191° |
| 2026-04-30 21:55 | 32.78887 | -84.41792 | 26991 ft | 443 kts | 190° |
| 2026-04-30 21:55 | 32.75793 | -84.41739 | 27338 ft | 446 kts | 190° |
| 2026-04-30 21:55 | 32.72673 | -84.41679 | 27666 ft | 451 kts | 190° |
| 2026-04-30 21:55 | 32.69523 | -84.41615 | 27985 ft | 454 kts | 190° |
| 2026-04-30 21:56 | 32.66353 | -84.41549 | 28320 ft | 458 kts | 190° |
| 2026-04-30 21:56 | 32.63156 | -84.41482 | 28644 ft | 461 kts | 190° |
| 2026-04-30 21:56 | 32.59979 | -84.41415 | 28964 ft | 464 kts | 190° |
| 2026-04-30 21:56 | 32.56737 | -84.41348 | 29277 ft | 467 kts | 190° |
| 2026-04-30 21:57 | 32.53480 | -84.41281 | 29605 ft | 470 kts | 190° |
| 2026-04-30 21:57 | 32.50208 | -84.41214 | 29910 ft | 472 kts | 190° |
| 2026-04-30 21:57 | 32.46912 | -84.41147 | 30183 ft | 474 kts | 190° |
| 2026-04-30 21:57 | 32.43606 | -84.41079 | 30469 ft | 476 kts | 190° |
| 2026-04-30 21:58 | 32.40294 | -84.41011 | 30749 ft | 477 kts | 190° |
| 2026-04-30 21:58 | 32.36968 | -84.40942 | 31075 ft | 477 kts | 191° |
| 2026-04-30 21:58 | 32.33656 | -84.40873 | 31469 ft | 476 kts | 191° |
| 2026-04-30 21:58 | 32.30392 | -84.40806 | 31844 ft | 475 kts | 191° |
| 2026-04-30 21:59 | 32.27089 | -84.40740 | 32156 ft | 475 kts | 191° |
| 2026-04-30 21:59 | 32.23776 | -84.40675 | 32462 ft | 476 kts | 191° |
| 2026-04-30 21:59 | 32.20465 | -84.40610 | 32794 ft | 476 kts | 191° |
| 2026-04-30 22:00 | 32.13853 | -84.40477 | 33446 ft | 475 kts | 191° |
| 2026-04-30 22:00 | 32.07237 | -84.40345 | 34039 ft | 476 kts | 191° |
| 2026-04-30 22:00 | 32.03922 | -84.40279 | 34319 ft | 476 kts | 191° |
| 2026-04-30 22:01 | 32.00664 | -84.40213 | 34641 ft | 474 kts | 191° |
| 2026-04-30 22:01 | 31.97372 | -84.40146 | 35002 ft | 472 kts | 191° |
| 2026-04-30 22:01 | 31.94091 | -84.40079 | 35360 ft | 470 kts | 191° |
| 2026-04-30 22:01 | 31.90827 | -84.40013 | 35653 ft | 469 kts | 191° |
| 2026-04-30 22:02 | 31.87565 | -84.39949 | 35932 ft | 469 kts | 191° |
| 2026-04-30 22:02 | 31.84310 | -84.39886 | 36231 ft | 467 kts | 191° |
| 2026-04-30 22:02 | 31.81063 | -84.39821 | 36545 ft | 466 kts | 191° |
| 2026-04-30 22:02 | 31.77829 | -84.39757 | 36831 ft | 464 kts | 191° |
| 2026-04-30 22:03 | 31.71374 | -84.39635 | 36922 ft | 470 kts | 191° |
| 2026-04-30 22:03 | 31.64843 | -84.39489 | 36909 ft | 470 kts | 189° |
| 2026-04-30 22:04 | 31.58291 | -84.38178 | 36912 ft | 482 kts | 178° |
| 2026-04-30 22:05 | 31.48546 | -84.35467 | 36914 ft | 481 kts | 178° |
| 2026-04-30 22:05 | 31.42033 | -84.33756 | 36917 ft | 479 kts | 179° |
| 2026-04-30 22:06 | 31.35512 | -84.32109 | 36915 ft | 480 kts | 179° |
| 2026-04-30 22:06 | 31.25746 | -84.29662 | 36905 ft | 482 kts | 178° |
| 2026-04-30 22:07 | 31.19184 | -84.28015 | 36906 ft | 483 kts | 178° |
| 2026-04-30 22:07 | 31.12609 | -84.26363 | 36906 ft | 484 kts | 178° |
| 2026-04-30 22:08 | 31.06016 | -84.24709 | 36909 ft | 485 kts | 178° |
| 2026-04-30 22:08 | 30.99461 | -84.23068 | 36904 ft | 486 kts | 178° |
| 2026-04-30 22:09 | 30.92852 | -84.21414 | 36908 ft | 486 kts | 178° |
| 2026-04-30 22:09 | 30.86248 | -84.19765 | 36905 ft | 485 kts | 177° |
| 2026-04-30 22:10 | 30.79657 | -84.18122 | 36906 ft | 484 kts | 177° |
| 2026-04-30 22:10 | 30.73121 | -84.16494 | 36904 ft | 483 kts | 177° |
| 2026-04-30 22:11 | 30.64667 | -84.14391 | 36901 ft | 481 kts | 177° |
| 2026-04-30 22:12 | 30.58124 | -84.12766 | 36900 ft | 480 kts | 177° |
| 2026-04-30 22:12 | 30.51593 | -84.11147 | 36896 ft | 479 kts | 177° |
| 2026-04-30 22:13 | 30.45133 | -84.09547 | 36901 ft | 478 kts | 176° |
| 2026-04-30 22:13 | 30.38629 | -84.07932 | 36902 ft | 479 kts | 174° |
| 2026-04-30 22:13 | 30.35451 | -84.06603 | 36888 ft | 494 kts | 158° |
| 2026-04-30 22:14 | 30.32459 | -84.04641 | 36919 ft | 495 kts | 155° |
| 2026-04-30 22:14 | 30.26570 | -84.00574 | 36913 ft | 496 kts | 155° |
| 2026-04-30 22:15 | 30.20625 | -83.96524 | 36904 ft | 495 kts | 155° |
| 2026-04-30 22:15 | 30.14659 | -83.92555 | 36909 ft | 494 kts | 155° |
| 2026-04-30 22:16 | 30.08691 | -83.88617 | 36905 ft | 494 kts | 155° |
| 2026-04-30 22:17 | 29.96776 | -83.80761 | 36907 ft | 495 kts | 155° |
| 2026-04-30 22:17 | 29.87806 | -83.74854 | 36906 ft | 495 kts | 155° |
| 2026-04-30 22:18 | 29.78826 | -83.68955 | 36919 ft | 495 kts | 155° |
| 2026-04-30 22:19 | 29.69885 | -83.63098 | 36920 ft | 495 kts | 155° |
| 2026-04-30 22:20 | 29.60899 | -83.57221 | 36920 ft | 495 kts | 155° |
| 2026-04-30 22:20 | 29.51951 | -83.51379 | 36926 ft | 495 kts | 155° |
| 2026-04-30 22:21 | 29.45958 | -83.47473 | 36929 ft | 496 kts | 154° |
| 2026-04-30 22:21 | 29.39959 | -83.43569 | 36929 ft | 496 kts | 154° |
| 2026-04-30 22:22 | 29.33957 | -83.39668 | 36930 ft | 496 kts | 154° |
| 2026-04-30 22:22 | 29.27991 | -83.35794 | 36930 ft | 496 kts | 154° |
| 2026-04-30 22:23 | 29.21894 | -83.32108 | 36930 ft | 494 kts | 159° |
| 2026-04-30 22:23 | 29.15614 | -83.28981 | 36932 ft | 492 kts | 161° |
| 2026-04-30 22:24 | 29.09297 | -83.25920 | 36933 ft | 493 kts | 161° |
| 2026-04-30 22:24 | 29.02967 | -83.22771 | 36933 ft | 494 kts | 160° |
| 2026-04-30 22:25 | 28.96762 | -83.19636 | 36928 ft | 494 kts | 160° |
| 2026-04-30 22:25 | 28.90476 | -83.16453 | 36933 ft | 494 kts | 160° |
| 2026-04-30 22:26 | 28.81040 | -83.11691 | 36929 ft | 495 kts | 160° |
| 2026-04-30 22:27 | 28.74788 | -83.08544 | 36931 ft | 495 kts | 159° |
| 2026-04-30 22:27 | 28.65345 | -83.03799 | 36938 ft | 495 kts | 159° |
| 2026-04-30 22:28 | 28.55897 | -82.99060 | 36933 ft | 494 kts | 159° |
| 2026-04-30 22:29 | 28.43352 | -82.92782 | 36943 ft | 494 kts | 159° |
| 2026-04-30 22:31 | 28.21400 | -82.81836 | 36944 ft | 493 kts | 159° |
| 2026-04-30 22:32 | 28.05736 | -82.74053 | 36944 ft | 493 kts | 159° |
| 2026-04-30 22:33 | 27.96074 | -82.70503 | 36961 ft | 484 kts | 174° |
| 2026-04-30 22:33 | 27.89428 | -82.69331 | 36952 ft | 483 kts | 175° |
| 2026-04-30 22:35 | 27.72884 | -82.66185 | 36924 ft | 483 kts | 173° |
| 2026-04-30 22:36 | 27.56339 | -82.62925 | 36954 ft | 483 kts | 173° |
| 2026-04-30 22:37 | 27.43258 | -82.59524 | 36955 ft | 485 kts | 167° |
| 2026-04-30 22:38 | 27.31334 | -82.55890 | 36957 ft | 485 kts | 168° |
| 2026-04-30 22:39 | 27.20479 | -82.52712 | 36954 ft | 486 kts | 168° |
| 2026-04-30 22:40 | 27.01884 | -82.47283 | 36497 ft | 494 kts | 168° |
| 2026-04-30 22:41 | 26.91957 | -82.44180 | 34670 ft | 494 kts | 156° |
| 2026-04-30 22:41 | 26.86523 | -82.39759 | 33964 ft | 483 kts | 139° |
| 2026-04-30 22:42 | 26.75814 | -82.29202 | 31928 ft | 466 kts | 139° |
| 2026-04-30 22:43 | 26.71743 | -82.25294 | 31194 ft | 461 kts | 140° |
| 2026-04-30 22:43 | 26.66897 | -82.20667 | 30261 ft | 457 kts | 140° |
| 2026-04-30 22:44 | 26.62059 | -82.16050 | 29152 ft | 454 kts | 140° |
| 2026-04-30 22:45 | 26.52598 | -82.07022 | 27286 ft | 440 kts | 139° |
| 2026-04-30 22:45 | 26.48099 | -82.02532 | 26409 ft | 434 kts | 138° |
| 2026-04-30 22:46 | 26.43676 | -81.98035 | 25530 ft | 428 kts | 138° |
| 2026-04-30 22:47 | 26.34897 | -81.89186 | 23756 ft | 421 kts | 138° |
| 2026-04-30 22:47 | 26.30594 | -81.84866 | 22803 ft | 416 kts | 138° |
| 2026-04-30 22:48 | 26.26325 | -81.80584 | 21930 ft | 409 kts | 138° |
| 2026-04-30 22:49 | 26.21472 | -81.73107 | 20684 ft | 395 kts | 113° |
| 2026-04-30 22:49 | 26.18010 | -81.64893 | 19470 ft | 386 kts | 114° |
| 2026-04-30 22:50 | 26.13414 | -81.54286 | 17824 ft | 377 kts | 114° |
| 2026-04-30 22:51 | 26.11146 | -81.49089 | 17053 ft | 368 kts | 114° |
| 2026-04-30 22:51 | 26.08935 | -81.44024 | 16293 ft | 361 kts | 114° |
| 2026-04-30 22:52 | 26.07857 | -81.41559 | 15918 ft | 358 kts | 114° |
| 2026-04-30 22:52 | 26.05703 | -81.36626 | 15171 ft | 352 kts | 114° |
| 2026-04-30 22:53 | 26.03584 | -81.31762 | 14430 ft | 347 kts | 114° |
| 2026-04-30 22:53 | 26.01493 | -81.26966 | 13677 ft | 343 kts | 114° |
| 2026-04-30 22:53 | 26.00454 | -81.24583 | 13260 ft | 341 kts | 114° |
| 2026-04-30 22:54 | 25.98412 | -81.19907 | 12510 ft | 336 kts | 114° |
| 2026-04-30 22:55 | 25.95390 | -81.12998 | 11423 ft | 328 kts | 114° |
| 2026-04-30 22:55 | 25.93412 | -81.08481 | 10730 ft | 323 kts | 114° |
| 2026-04-30 22:56 | 25.91488 | -81.04094 | 10274 ft | 310 kts | 114° |
| 2026-04-30 22:56 | 25.89014 | -80.97741 | 9669 ft | 293 kts | 110° |
| 2026-04-30 22:57 | 25.87440 | -80.93594 | 9044 ft | 289 kts | 111° |
| 2026-04-30 22:57 | 25.85892 | -80.89557 | 8522 ft | 283 kts | 111° |
| 2026-04-30 22:58 | 25.84363 | -80.85579 | 8022 ft | 278 kts | 111° |
| 2026-04-30 22:59 | 25.82095 | -80.79685 | 7190 ft | 276 kts | 112° |
| 2026-04-30 22:59 | 25.79835 | -80.73820 | 6361 ft | 274 kts | 113° |